KHST/HST METAR and TAF weather

Enter ICAO airport designator
Station Type Date Time Source
KHST METAR 2019/10/15 20:56 UTC NOAA

KHST 152056Z AUTO 11007KT 10SM CLR 30/23 A2996 RMK AO2 SLP149 T02950227 56015


Station Type Date Time Source
KHST Decoded METAR 2019/10/15 20:56 UTC NOAA

Homestead Air Force Base, FL, United States (KHST) 25-29N 080-23W
Oct 15, 2019 - 04:56 PM EDT / 2019.10.15 2056 UTC
Wind: from the ESE (110 degrees) at 8 MPH (7 KT):0
Visibility: 10 mile(s):0
Sky conditions: clear
Temperature: 85.1 F (29.5 C)
Heat index: 91.4 F (33.0 C):1
Dew Point: 72.9 F (22.7 C)
Relative Humidity: 66%
Pressure (altimeter): 29.96 in. Hg (1014 hPa)
Pressure tendency: 0.04 inches (1.5 hPa) lower than three hours ago
ob: KHST 152056Z AUTO 11007KT 10SM CLR 30/23 A2996 RMK AO2 SLP149 T02950227 56015
cycle: 21

Station Type Date Time Source
KHST TAF 2019/10/15 16:06 UTC NOAA

TAF KHST 151600Z 1516/1622 05009KT 9999 SCT030 SCT250 QNH2999INS
BECMG 1602/1603 07006KT 9999 BKN025 BKN100 QNH3000INS
BECMG 1613/1614 09009KT 9999 FEW020 SCT250 QNH2996INS
BECMG 1616/1617 17008KT 8000 -SHRA BKN030 QNH2998INS TX30/1518Z TN24/1611Z

Example: see airport list